Tai Shan, China
Current Conditions -  °F | °C
As of 7:00 PM on Friday 24 Oct 2014 (Local Time) from ZSJN Reporting Station
Clear Clear  
Wind Chill: 68°   Ceiling: Unl
Heat Index: 68°   Visibility: 6mi
Dew Point: 50°   Wind: 7mph
Humidity: 52%   Direction: 180°S
Pressure: 29.85"   Gusts: NA
Location:  36.25°N, 117.1°E
Report Text: ZSJN 241100Z 18003MPS CAVOK 20/10 Q1011 NOSIG
Loading
Personal Weather Stations






























Interactive Weather Map
Tropical Storm Tracking
New forecast layout! Learn more

10-Day Weather Forecast

Advertisements
Track Severe Weather on mobile